createdAt,value
2018-11-26T00:00:04.271Z,6.74
2018-11-26T00:02:34.991Z,6.74
2018-11-26T00:05:05.553Z,6.74
2018-11-26T00:07:50.848Z,6.78
2018-11-26T00:10:38.460Z,6.72
2018-11-26T00:13:08.927Z,6.72
2018-11-26T00:15:39.719Z,6.72
2018-11-26T00:18:10.696Z,6.71
2018-11-26T00:20:41.590Z,6.74
2018-11-26T00:23:12.304Z,6.75
2018-11-26T00:25:43.025Z,6.73
2018-11-26T00:28:13.643Z,6.72
2018-11-26T00:30:44.348Z,6.74
2018-11-26T00:33:14.969Z,6.80
2018-11-26T00:35:45.640Z,6.84
2018-11-26T00:38:16.281Z,6.83
2018-11-26T00:40:46.949Z,6.80
2018-11-26T00:43:17.669Z,6.76
2018-11-26T00:45:48.360Z,6.74
2018-11-26T00:48:19.117Z,6.74
2018-11-26T00:50:50.620Z,6.71
2018-11-26T00:53:21.505Z,6.71
2018-11-26T00:55:52.169Z,6.71
2018-11-26T00:58:22.948Z,6.69
2018-11-26T01:00:53.906Z,6.57
2018-11-26T01:03:24.705Z,6.59
2018-11-26T01:05:55.289Z,6.56
2018-11-26T01:08:26.150Z,6.56
2018-11-26T01:10:56.984Z,6.60
2018-11-26T01:13:27.629Z,6.58
2018-11-26T01:15:58.565Z,6.50
2018-11-26T01:18:29.205Z,6.44
2018-11-26T01:21:00.111Z,6.38
2018-11-26T01:23:31.064Z,6.35
2018-11-26T01:26:01.624Z,6.41
2018-11-26T01:28:32.653Z,6.36
2018-11-26T01:31:03.308Z,6.38
2018-11-26T01:33:34.096Z,6.42
2018-11-26T01:36:05.764Z,6.35
2018-11-26T01:38:36.367Z,6.38
2018-11-26T01:41:08.344Z,6.41
2018-11-26T01:43:38.969Z,6.36
2018-11-26T01:46:10.022Z,6.32
2018-11-26T01:48:40.654Z,6.24
2018-11-26T01:51:11.680Z,6.25
2018-11-26T01:53:42.264Z,6.17
2018-11-26T01:56:13.264Z,6.17
2018-11-26T01:58:44.183Z,6.09
2018-11-26T02:01:14.837Z,6.06
2018-11-26T02:03:45.947Z,6.10
2018-11-26T02:06:16.607Z,6.20
2018-11-26T02:08:47.236Z,6.25
2018-11-26T02:11:18.129Z,6.29
2018-11-26T02:13:50.020Z,6.20
2018-11-26T02:16:20.623Z,6.25
2018-11-26T02:18:51.491Z,6.26
2018-11-26T02:21:22.405Z,6.31
2018-11-26T02:23:53.264Z,6.27
2018-11-26T02:26:24.188Z,6.31
2018-11-26T02:28:54.848Z,6.29
2018-11-26T02:31:25.448Z,6.27
2018-11-26T02:33:56.489Z,6.25
2018-11-26T02:36:27.328Z,6.26
2018-11-26T02:38:58.618Z,6.27
2018-11-26T02:41:29.222Z,6.26
2018-11-26T02:44:00.197Z,6.22
2018-11-26T02:46:30.736Z,6.21
2018-11-26T02:49:01.550Z,6.24
2018-11-26T02:51:32.193Z,6.28
2018-11-26T02:54:03.296Z,6.36
2018-11-26T02:56:35.003Z,6.29
2018-11-26T02:59:06.261Z,6.26
2018-11-26T03:01:37.154Z,6.26
2018-11-26T03:04:08.195Z,6.22
2018-11-26T03:06:39.747Z,6.19
2018-11-26T03:09:10.341Z,6.22
2018-11-26T03:11:41.388Z,6.18
2018-11-26T03:14:12.291Z,6.15
2018-11-26T03:16:43.406Z,6.14
2018-11-26T03:19:14.402Z,6.19
2018-11-26T03:21:46.885Z,6.19
2018-11-26T03:24:17.804Z,6.14
2018-11-26T03:26:48.865Z,6.19
2018-11-26T03:29:19.823Z,6.14
2018-11-26T03:31:50.739Z,6.17
2018-11-26T03:34:21.590Z,6.20
2018-11-26T03:36:52.722Z,6.23
2018-11-26T03:39:23.661Z,6.31
2018-11-26T03:41:54.904Z,6.23
2018-11-26T03:44:25.447Z,6.26
2018-11-26T03:46:56.669Z,6.23
2018-11-26T03:49:27.589Z,6.34
2018-11-26T03:51:58.544Z,6.29
2018-11-26T03:54:29.377Z,6.29
2018-11-26T03:57:00.348Z,6.23
2018-11-26T03:59:32.179Z,6.22
2018-11-26T04:02:03.413Z,6.22
2018-11-26T04:04:34.479Z,6.26
2018-11-26T04:07:05.691Z,6.23
2018-11-26T04:09:36.549Z,6.28
2018-11-26T04:12:07.459Z,6.27
2018-11-26T04:14:38.747Z,6.25
2018-11-26T04:17:09.661Z,6.18
2018-11-26T04:19:40.408Z,6.16
2018-11-26T04:22:11.326Z,6.14
2018-11-26T04:24:42.309Z,6.16
2018-11-26T04:27:13.206Z,6.14
2018-11-26T04:29:44.135Z,6.19
2018-11-26T04:32:15.083Z,6.19
2018-11-26T04:34:45.929Z,6.21
2018-11-26T04:37:16.510Z,6.15
2018-11-26T04:39:47.293Z,6.23
2018-11-26T04:42:18.369Z,6.30
2018-11-26T04:44:49.301Z,6.34
2018-11-26T04:47:20.513Z,6.25
2018-11-26T04:49:51.202Z,6.26
2018-11-26T04:52:22.369Z,6.31
2018-11-26T04:54:53.842Z,6.29
2018-11-26T04:57:25.166Z,6.35
2018-11-26T04:59:56.316Z,6.41
2018-11-26T05:02:27.229Z,6.47
2018-11-26T05:05:04.429Z,6.57
2018-11-26T05:07:35.541Z,6.52
2018-11-26T05:10:08.657Z,6.48
2018-11-26T05:12:39.500Z,6.49
2018-11-26T05:15:13.691Z,6.58
2018-11-26T05:17:45.176Z,6.65
2018-11-26T05:20:16.121Z,6.54
2018-11-26T05:22:47.065Z,6.48
2018-11-26T05:25:17.643Z,6.50
2018-11-26T05:27:48.534Z,6.49
2018-11-26T05:30:19.381Z,6.51
2018-11-26T05:32:50.297Z,6.56
2018-11-26T05:35:21.336Z,6.60
2018-11-26T05:37:52.197Z,6.68
2018-11-26T05:40:23.298Z,6.63
2018-11-26T05:42:54.348Z,6.63
2018-11-26T05:45:25.385Z,6.55
2018-11-26T05:47:56.336Z,6.57
2018-11-26T05:50:27.293Z,6.51
2018-11-26T05:52:58.202Z,6.45
2018-11-26T05:55:29.050Z,6.54
2018-11-26T05:58:00.065Z,6.53
2018-11-26T06:00:33.271Z,6.56
2018-11-26T06:03:05.024Z,6.55
2018-11-26T06:05:36.496Z,6.52
2018-11-26T06:08:07.689Z,6.47
2018-11-26T06:10:40.919Z,6.45
2018-11-26T06:13:12.328Z,6.47
2018-11-26T06:15:42.997Z,6.48
2018-11-26T06:18:13.861Z,6.53
2018-11-26T06:20:45.888Z,6.55
2018-11-26T06:23:16.851Z,6.59
2018-11-26T06:25:47.527Z,6.68
2018-11-26T06:28:18.222Z,6.65
2018-11-26T06:30:49.953Z,6.58
2018-11-26T06:33:21.010Z,6.49
2018-11-26T06:35:52.241Z,6.51
2018-11-26T06:38:23.192Z,6.55
2018-11-26T06:40:54.812Z,6.51
2018-11-26T06:43:25.778Z,6.48
2018-11-26T06:45:56.336Z,6.47
2018-11-26T06:48:27.960Z,6.52
2018-11-26T06:50:58.528Z,6.51
2018-11-26T06:53:29.733Z,6.52
2018-11-26T06:56:00.369Z,6.55
2018-11-26T06:58:31.216Z,6.51
2018-11-26T07:01:01.779Z,6.47
2018-11-26T07:03:32.365Z,6.44
2018-11-26T07:06:03.250Z,6.50
2018-11-26T07:08:34.755Z,6.51
2018-11-26T07:11:06.368Z,6.55
2018-11-26T07:13:36.941Z,6.64
2018-11-26T07:16:07.248Z,6.54
2018-11-26T07:18:38.537Z,6.55
2018-11-26T07:21:09.142Z,6.56
2018-11-26T07:23:40.085Z,6.57
2018-11-26T07:26:10.909Z,6.61
2018-11-26T07:28:41.532Z,6.56
2018-11-26T07:31:12.668Z,6.64
2018-11-26T07:33:43.617Z,6.62
2018-11-26T07:36:15.170Z,6.63
2018-11-26T07:38:45.789Z,6.69
2018-11-26T07:41:16.416Z,6.72
2018-11-26T07:43:47.073Z,6.66
2018-11-26T07:46:17.649Z,6.71
2018-11-26T07:48:48.321Z,6.71
2018-11-26T07:51:19.363Z,6.71
2018-11-26T07:53:50.843Z,6.71
2018-11-26T07:56:22.677Z,6.76
2018-11-26T07:58:53.416Z,6.75
2018-11-26T08:01:24.023Z,6.61
2018-11-26T08:03:54.676Z,6.56
2018-11-26T08:06:25.921Z,6.58
2018-11-26T08:08:56.683Z,6.56
2018-11-26T08:11:27.477Z,6.57
2018-11-26T08:13:59.121Z,6.50
2018-11-26T08:16:29.880Z,6.52
2018-11-26T08:19:00.934Z,6.52
2018-11-26T08:21:31.243Z,6.57
2018-11-26T08:24:02.265Z,6.58
2018-11-26T08:26:32.882Z,6.60
2018-11-26T08:29:03.736Z,6.62
2018-11-26T08:31:34.632Z,6.56
2018-11-26T08:34:05.621Z,6.63
2018-11-26T08:36:41.444Z,6.65
2018-11-26T08:39:18.648Z,6.70
2018-11-26T08:41:53.877Z,6.71
2018-11-26T08:44:29.997Z,6.78
2018-11-26T08:47:03.851Z,6.73
2018-11-26T08:49:34.481Z,6.72
2018-11-26T08:52:05.437Z,6.72
2018-11-26T08:54:36.233Z,6.77
2018-11-26T08:57:09.498Z,6.73
2018-11-26T08:59:40.311Z,6.73
2018-11-26T09:02:10.979Z,6.80
2018-11-26T09:04:46.020Z,6.82
2018-11-26T09:07:16.861Z,6.72
2018-11-26T09:09:47.701Z,6.70
2018-11-26T09:12:18.905Z,6.70
2018-11-26T09:14:49.781Z,6.74
2018-11-26T09:17:21.058Z,6.75
2018-11-26T09:19:51.972Z,6.70
2018-11-26T09:22:22.928Z,6.75
2018-11-26T09:24:54.111Z,6.80
2018-11-26T09:27:25.417Z,6.80
2018-11-26T09:29:56.048Z,6.99
2018-11-26T09:32:26.748Z,6.97
2018-11-26T09:34:58.338Z,7.00
2018-11-26T09:37:28.925Z,6.97
2018-11-26T09:39:59.797Z,7.01
2018-11-26T09:42:31.195Z,7.03
2018-11-26T09:45:01.901Z,7.15
2018-11-26T09:47:32.792Z,7.11
2018-11-26T09:50:03.481Z,7.14
2018-11-26T09:52:34.296Z,7.08
2018-11-26T09:55:05.906Z,7.07
2018-11-26T09:57:36.478Z,7.03
2018-11-26T10:00:16.517Z,6.91
2018-11-26T10:02:49.853Z,6.96
2018-11-26T10:05:23.200Z,6.97
2018-11-26T10:07:53.496Z,7.02
2018-11-26T10:10:24.560Z,7.08
2018-11-26T10:12:55.196Z,7.12
2018-11-26T10:15:27.485Z,7.04
2018-11-26T10:17:58.092Z,6.99
2018-11-26T10:20:28.841Z,7.06
2018-11-26T10:23:00.192Z,7.07
2018-11-26T10:25:30.764Z,7.09
2018-11-26T10:28:01.536Z,7.16
2018-11-26T10:30:32.176Z,7.12
2018-11-26T10:33:03.014Z,7.10
2018-11-26T10:35:33.734Z,7.14
2018-11-26T10:38:04.590Z,7.13
2018-11-26T10:40:35.429Z,7.15
2018-11-26T10:43:11.506Z,7.20
2018-11-26T10:45:39.149Z,7.19
2018-11-26T10:48:09.849Z,7.12
2018-11-26T10:50:40.509Z,7.03
2018-11-26T10:53:11.214Z,6.95
2018-11-26T10:55:42.184Z,6.81
2018-11-26T10:58:13.421Z,6.89
2018-11-26T11:00:49.268Z,6.89
2018-11-26T11:03:19.840Z,6.87
2018-11-26T11:05:50.877Z,6.83
2018-11-26T11:08:21.609Z,6.73
2018-11-26T11:10:52.623Z,6.75
2018-11-26T11:13:23.468Z,6.76
2018-11-26T11:15:53.856Z,6.75
2018-11-26T11:18:25.009Z,6.81
2018-11-26T11:20:55.660Z,6.89
2018-11-26T11:23:26.401Z,6.93
2018-11-26T11:25:56.965Z,6.90
2018-11-26T11:28:27.623Z,7.00
2018-11-26T11:30:59.029Z,7.09
2018-11-26T11:33:30.703Z,7.12
2018-11-26T11:36:01.041Z,7.10
2018-11-26T11:38:31.680Z,7.10
2018-11-26T11:41:03.085Z,7.22
2018-11-26T11:43:40.446Z,7.25
2018-11-26T11:46:11.005Z,7.23
2018-11-26T11:48:41.597Z,7.11
2018-11-26T11:51:12.190Z,7.13
2018-11-26T11:53:42.922Z,7.20
2018-11-26T11:56:13.613Z,7.12
2018-11-26T11:58:44.199Z,7.08
2018-11-26T12:01:14.901Z,7.11
2018-11-26T12:03:45.476Z,7.16
2018-11-26T12:06:17.852Z,7.10
2018-11-26T12:08:48.457Z,7.03
2018-11-26T12:11:19.046Z,6.91
2018-11-26T12:13:49.749Z,6.90
2018-11-26T12:16:20.499Z,6.85
2018-11-26T12:18:51.241Z,6.89
2018-11-26T12:21:21.842Z,6.97
2018-11-26T12:23:52.719Z,6.97
2018-11-26T12:26:23.311Z,7.09
2018-11-26T12:28:53.953Z,7.09
2018-11-26T12:31:24.702Z,7.07
2018-11-26T12:33:55.715Z,7.07
2018-11-26T12:36:26.344Z,7.15
2018-11-26T12:38:56.927Z,7.24
2018-11-26T12:41:27.507Z,7.27
2018-11-26T12:43:58.114Z,7.15
2018-11-26T12:46:28.994Z,7.17
2018-11-26T12:49:00.683Z,7.21
2018-11-26T12:51:31.295Z,7.22
2018-11-26T12:54:02.686Z,7.10
2018-11-26T12:56:33.254Z,7.10
2018-11-26T12:59:03.931Z,7.09
2018-11-26T13:01:34.602Z,7.10
2018-11-26T13:04:05.326Z,7.09
2018-11-26T13:06:35.986Z,7.11
2018-11-26T13:09:08.451Z,7.16
2018-11-26T13:11:39.054Z,7.11
2018-11-26T13:14:09.716Z,7.08
2018-11-26T13:16:40.536Z,7.04
2018-11-26T13:19:11.106Z,7.06
2018-11-26T13:21:41.782Z,7.04
2018-11-26T13:24:12.472Z,7.04
2018-11-26T13:26:43.783Z,6.89
2018-11-26T13:29:14.817Z,6.87
2018-11-26T13:31:45.570Z,6.91
2018-11-26T13:34:16.493Z,6.87
2018-11-26T13:36:47.193Z,6.88
2018-11-26T13:39:18.068Z,6.88
2018-11-26T13:41:48.970Z,6.81
2018-11-26T13:44:19.874Z,6.82
2018-11-26T13:46:50.578Z,6.73
2018-11-26T13:49:21.608Z,6.72
2018-11-26T13:51:52.738Z,6.83
2018-11-26T13:54:23.354Z,6.83
2018-11-26T13:56:53.968Z,6.76
2018-11-26T13:59:24.751Z,6.76
2018-11-26T14:01:55.933Z,6.82
2018-11-26T14:04:26.945Z,6.88
2018-11-26T14:06:57.560Z,6.83
2018-11-26T14:09:28.279Z,6.87
2018-11-26T14:11:58.895Z,6.94
2018-11-26T14:14:29.618Z,6.97
2018-11-26T14:17:00.818Z,6.90
2018-11-26T14:19:31.454Z,6.88
2018-11-26T14:22:02.299Z,6.83
2018-11-26T14:24:33.304Z,6.93
2018-11-26T14:27:04.238Z,6.91
2018-11-26T14:29:35.690Z,6.99
2018-11-26T14:32:07.283Z,6.99
2018-11-26T14:34:38.591Z,7.04
2018-11-26T14:37:09.274Z,7.09
2018-11-26T14:39:39.962Z,7.06
2018-11-26T14:42:10.286Z,7.03
2018-11-26T14:44:40.718Z,7.02
2018-11-26T14:47:11.341Z,6.88
2018-11-26T14:49:41.966Z,6.80
2018-11-26T14:52:12.662Z,6.83
2018-11-26T14:54:43.341Z,6.86
2018-11-26T14:57:14.022Z,6.89
2018-11-26T14:59:44.906Z,6.93
2018-11-26T15:02:15.537Z,6.89
2018-11-26T15:04:46.488Z,6.94
2018-11-26T15:07:17.103Z,7.00
2018-11-26T15:09:47.942Z,7.02
2018-11-26T15:12:18.758Z,7.03
2018-11-26T15:14:49.420Z,7.05
2018-11-26T15:17:20.343Z,6.99
2018-11-26T15:19:51.665Z,7.00
2018-11-26T15:22:22.717Z,6.98
2018-11-26T15:24:53.334Z,6.86
2018-11-26T15:27:24.018Z,6.81
2018-11-26T15:29:54.602Z,6.69
2018-11-26T15:32:26.071Z,6.57
2018-11-26T15:34:57.902Z,6.57
2018-11-26T15:37:29.139Z,6.49
2018-11-26T15:39:59.660Z,6.51
2018-11-26T15:42:30.411Z,6.43
2018-11-26T15:45:01.341Z,6.46
2018-11-26T15:47:32.554Z,6.49
2018-11-26T15:50:04.132Z,6.41
2018-11-26T15:52:35.150Z,6.31
2018-11-26T15:55:07.873Z,6.29
2018-11-26T15:57:38.837Z,6.34
2018-11-26T16:00:27.846Z,6.31
2018-11-26T16:02:58.864Z,6.25
2018-11-26T16:05:32.167Z,6.22
2018-11-26T16:08:10.067Z,6.27
2018-11-26T16:10:41.381Z,6.31
2018-11-26T16:13:14.913Z,6.35
2018-11-26T16:15:46.602Z,6.39
2018-11-26T16:18:19.825Z,6.41
2018-11-26T16:20:51.814Z,6.48
2018-11-26T16:23:22.798Z,6.49
2018-11-26T16:25:54.156Z,6.55
2018-11-26T16:28:25.298Z,6.57
2018-11-26T16:30:56.040Z,6.60
2018-11-26T16:33:26.913Z,6.60
2018-11-26T16:35:57.915Z,6.62
2018-11-26T16:38:28.941Z,6.68
2018-11-26T16:41:00.289Z,6.69
2018-11-26T16:43:31.243Z,6.73
2018-11-26T16:46:02.050Z,6.74
2018-11-26T16:48:33.005Z,6.77
2018-11-26T16:51:03.954Z,6.79
2018-11-26T16:53:35.887Z,6.83
2018-11-26T16:56:07.018Z,6.86
2018-11-26T16:58:38.107Z,6.86
2018-11-26T17:01:09.071Z,6.88
2018-11-26T17:03:39.658Z,6.89
2018-11-26T17:06:10.294Z,6.89
2018-11-26T17:08:41.086Z,6.89
2018-11-26T17:11:12.043Z,6.89
2018-11-26T17:13:42.917Z,6.89
2018-11-26T17:16:13.550Z,6.88
2018-11-26T17:18:44.341Z,6.90
2018-11-26T17:21:15.702Z,6.89
2018-11-26T17:23:46.640Z,6.88
2018-11-26T17:26:17.287Z,6.90
2018-11-26T17:28:47.913Z,6.90
2018-11-26T17:31:19.682Z,6.93
2018-11-26T17:33:50.609Z,6.93
2018-11-26T17:36:21.443Z,6.90
2018-11-26T17:38:52.595Z,6.91
2018-11-26T17:41:23.797Z,6.89
2018-11-26T17:43:54.474Z,6.89
2018-11-26T17:46:25.422Z,6.87
2018-11-26T17:48:56.435Z,6.90
2018-11-26T17:51:27.697Z,6.86
2018-11-26T17:53:58.055Z,6.86
2018-11-26T17:56:28.770Z,6.84
2018-11-26T17:58:59.402Z,6.83
2018-11-26T18:01:35.469Z,6.83
2018-11-26T18:04:07.374Z,6.83
2018-11-26T18:06:38.229Z,6.81
2018-11-26T18:09:12.267Z,6.85
2018-11-26T18:11:42.890Z,6.86
2018-11-26T18:14:14.122Z,6.88
2018-11-26T18:16:44.789Z,6.76
2018-11-26T18:19:15.414Z,6.75
2018-11-26T18:21:46.015Z,6.79
2018-11-26T18:24:16.682Z,6.82
2018-11-26T18:26:47.402Z,6.83
2018-11-26T18:29:19.287Z,6.85
2018-11-26T18:31:49.999Z,6.86
2018-11-26T18:34:20.905Z,6.87
2018-11-26T18:36:51.600Z,6.84
2018-11-26T18:39:22.189Z,6.84
2018-11-26T18:41:52.841Z,6.85
2018-11-26T18:44:23.248Z,6.85
2018-11-26T18:46:53.933Z,6.85
2018-11-26T18:49:24.646Z,6.87
2018-11-26T18:51:55.364Z,6.89
2018-11-26T18:54:26.055Z,6.87
2018-11-26T18:56:57.411Z,6.85
2018-11-26T18:59:28.270Z,6.84
2018-11-26T19:02:00.012Z,6.82
2018-11-26T19:04:30.742Z,6.79
2018-11-26T19:07:03.078Z,6.77
2018-11-26T19:09:33.906Z,6.76
2018-11-26T19:12:05.101Z,6.80
2018-11-26T19:14:35.986Z,6.80
2018-11-26T19:17:07.714Z,6.82
2018-11-26T19:19:42.157Z,6.80
2018-11-26T19:22:09.263Z,6.82
2018-11-26T19:24:39.883Z,6.81
2018-11-26T19:27:10.612Z,6.82
2018-11-26T19:29:41.230Z,6.80
2018-11-26T19:32:11.881Z,6.78
2018-11-26T19:34:42.490Z,6.76
2018-11-26T19:37:13.114Z,6.78
2018-11-26T19:39:45.767Z,6.78
2018-11-26T19:42:16.799Z,6.81
2018-11-26T19:44:47.448Z,6.81
2018-11-26T19:47:18.109Z,6.81
2018-11-26T19:49:48.751Z,6.82
2018-11-26T19:52:19.466Z,6.80
2018-11-26T19:54:50.226Z,6.78
2018-11-26T19:57:20.850Z,6.76
2018-11-26T19:59:51.361Z,6.76
2018-11-26T20:02:21.999Z,6.78
2018-11-26T20:04:59.044Z,6.78
2018-11-26T20:07:30.134Z,6.81
2018-11-26T20:10:01.804Z,6.79
2018-11-26T20:12:32.558Z,6.77
2018-11-26T20:15:03.466Z,6.74
2018-11-26T20:17:34.246Z,6.75
2018-11-26T20:20:05.424Z,6.78
2018-11-26T20:22:36.462Z,6.78
2018-11-26T20:25:14.634Z,6.77
2018-11-26T20:27:45.343Z,6.70
2018-11-26T20:30:16.937Z,6.67
2018-11-26T20:32:49.614Z,6.67
2018-11-26T20:35:20.343Z,6.68
2018-11-26T20:37:51.826Z,6.70
2018-11-26T20:40:22.492Z,6.68
2018-11-26T20:42:55.375Z,6.73
2018-11-26T20:45:26.746Z,6.70
2018-11-26T20:47:57.232Z,6.71
2018-11-26T20:50:29.541Z,6.74
2018-11-26T20:53:00.419Z,6.73
2018-11-26T20:55:31.022Z,6.73
2018-11-26T20:58:02.818Z,6.72
2018-11-26T21:00:33.574Z,6.71
2018-11-26T21:03:08.562Z,6.73
2018-11-26T21:05:40.303Z,6.72
2018-11-26T21:08:11.298Z,6.72
2018-11-26T21:10:42.505Z,6.73
2018-11-26T21:13:16.963Z,6.73
2018-11-26T21:15:44.570Z,6.72
2018-11-26T21:18:15.223Z,6.72
2018-11-26T21:20:49.903Z,6.73
2018-11-26T21:23:29.180Z,6.74
2018-11-26T21:26:01.958Z,6.73
2018-11-26T21:28:32.618Z,6.72
2018-11-26T21:31:04.077Z,6.73
2018-11-26T21:33:35.117Z,6.70
2018-11-26T21:36:06.258Z,6.73
2018-11-26T21:38:39.697Z,6.72
2018-11-26T21:41:10.626Z,6.75
2018-11-26T21:43:42.103Z,6.74
2018-11-26T21:46:12.712Z,6.72
2018-11-26T21:48:43.340Z,6.70
2018-11-26T21:51:13.967Z,6.72
2018-11-26T21:53:44.724Z,6.73
2018-11-26T21:56:15.684Z,6.72
2018-11-26T21:58:46.463Z,6.72
2018-11-26T22:01:17.255Z,6.71
2018-11-26T22:03:48.223Z,6.74
2018-11-26T22:06:19.109Z,6.72
2018-11-26T22:08:50.085Z,6.69
2018-11-26T22:11:20.779Z,6.66
2018-11-26T22:13:51.406Z,6.67
2018-11-26T22:16:22.058Z,6.68
2018-11-26T22:18:52.842Z,6.68
2018-11-26T22:21:23.415Z,6.70
2018-11-26T22:23:54.277Z,6.73
2018-11-26T22:26:24.958Z,6.71
2018-11-26T22:28:56.377Z,6.69
2018-11-26T22:31:27.555Z,6.70
2018-11-26T22:33:58.195Z,6.67
2018-11-26T22:36:29.343Z,6.67
2018-11-26T22:39:00.274Z,6.67
2018-11-26T22:41:31.314Z,6.67
2018-11-26T22:44:01.963Z,6.65
2018-11-26T22:46:32.579Z,6.66
2018-11-26T22:49:03.638Z,6.67
2018-11-26T22:51:34.236Z,6.64
2018-11-26T22:54:05.338Z,6.64
2018-11-26T22:56:36.011Z,6.64
2018-11-26T22:59:07.423Z,6.64
2018-11-26T23:01:38.013Z,6.62
2018-11-26T23:04:08.440Z,6.59
2018-11-26T23:06:40.603Z,6.57
2018-11-26T23:09:13.184Z,6.57
2018-11-26T23:11:44.586Z,6.56
2018-11-26T23:14:15.444Z,6.53
2018-11-26T23:16:46.199Z,6.53
2018-11-26T23:19:16.995Z,6.51
2018-11-26T23:21:47.654Z,6.54
2018-11-26T23:24:18.285Z,6.56
2018-11-26T23:26:49.226Z,6.56
2018-11-26T23:29:19.907Z,6.55
2018-11-26T23:31:50.682Z,6.52
2018-11-26T23:34:21.641Z,6.51
2018-11-26T23:36:52.496Z,6.51
2018-11-26T23:39:25.360Z,6.53
2018-11-26T23:41:55.977Z,6.54
2018-11-26T23:44:26.902Z,6.54
2018-11-26T23:46:57.545Z,6.51
2018-11-26T23:49:28.158Z,6.52
2018-11-26T23:51:58.730Z,6.54
2018-11-26T23:54:29.717Z,6.53
2018-11-26T23:57:00.531Z,6.55
2018-11-26T23:59:31.406Z,6.54
